sensor_id;sensor_type;location;lat;lon;timestamp;pressure;altitude;pressure_sealevel;temperature;humidity
46506;BME280;32220;49.808;9.968;2023-04-19T00:02:24;99593.56;;;10.62;73.16
46506;BME280;32220;49.808;9.968;2023-04-19T00:04:52;99617.16;;;10.84;73.37
46506;BME280;32220;49.808;9.968;2023-04-19T00:07:20;99631.88;;;10.89;73.66
46506;BME280;32220;49.808;9.968;2023-04-19T00:09:48;99614.44;;;10.85;73.52
46506;BME280;32220;49.808;9.968;2023-04-19T00:12:17;99625.72;;;10.89;73.22
46506;BME280;32220;49.808;9.968;2023-04-19T00:14:44;99623.06;;;10.89;73.51
46506;BME280;32220;49.808;9.968;2023-04-19T00:17:12;99608.50;;;10.80;73.45
46506;BME280;32220;49.808;9.968;2023-04-19T00:19:40;99620.19;;;10.93;73.72
46506;BME280;32220;49.808;9.968;2023-04-19T00:22:08;99595.25;;;10.80;73.16
46506;BME280;32220;49.808;9.968;2023-04-19T00:24:35;99614.59;;;10.99;73.12
46506;BME280;32220;49.808;9.968;2023-04-19T00:27:03;99593.41;;;10.82;73.30
46506;BME280;32220;49.808;9.968;2023-04-19T00:29:32;99606.78;;;10.96;72.96
46506;BME280;32220;49.808;9.968;2023-04-19T00:31:59;99625.09;;;11.01;72.67
46506;BME280;32220;49.808;9.968;2023-04-19T00:34:27;99592.47;;;10.83;72.95
46506;BME280;32220;49.808;9.968;2023-04-19T00:36:55;99601.00;;;10.88;72.31
46506;BME280;32220;49.808;9.968;2023-04-19T00:39:23;99580.94;;;10.84;72.89
46506;BME280;32220;49.808;9.968;2023-04-19T00:41:50;99611.75;;;11.02;72.39
46506;BME280;32220;49.808;9.968;2023-04-19T00:44:18;99611.69;;;11.04;72.64
46506;BME280;32220;49.808;9.968;2023-04-19T00:46:48;99608.16;;;11.03;72.54
46506;BME280;32220;49.808;9.968;2023-04-19T00:49:17;99610.97;;;11.00;72.42
46506;BME280;32220;49.808;9.968;2023-04-19T00:51:45;99613.53;;;11.02;72.30
46506;BME280;32220;49.808;9.968;2023-04-19T00:54:13;99584.38;;;10.86;72.95
46506;BME280;32220;49.808;9.968;2023-04-19T00:56:42;99594.47;;;10.95;73.18
46506;BME280;32220;49.808;9.968;2023-04-19T00:59:10;99603.34;;;10.94;73.34
46506;BME280;32220;49.808;9.968;2023-04-19T01:01:38;99596.25;;;10.95;73.38
46506;BME280;32220;49.808;9.968;2023-04-19T01:04:08;99603.22;;;10.97;73.16
46506;BME280;32220;49.808;9.968;2023-04-19T01:06:37;99583.59;;;10.84;73.52
46506;BME280;32220;49.808;9.968;2023-04-19T01:09:10;99565.03;;;10.84;73.14
46506;BME280;32220;49.808;9.968;2023-04-19T01:11:40;99594.47;;;10.95;73.04
46506;BME280;32220;49.808;9.968;2023-04-19T01:14:08;99569.41;;;10.85;72.77
46506;BME280;32220;49.808;9.968;2023-04-19T01:16:36;99588.25;;;10.96;72.60
46506;BME280;32220;49.808;9.968;2023-04-19T01:19:04;99588.25;;;10.96;72.70
46506;BME280;32220;49.808;9.968;2023-04-19T01:21:35;99598.69;;;10.99;72.43
46506;BME280;32220;49.808;9.968;2023-04-19T01:24:05;99577.00;;;10.91;72.51
46506;BME280;32220;49.808;9.968;2023-04-19T01:26:33;99562.47;;;10.83;72.89
46506;BME280;32220;49.808;9.968;2023-04-19T01:29:02;99579.66;;;10.91;72.58
46506;BME280;32220;49.808;9.968;2023-04-19T01:31:30;99582.16;;;10.94;73.05
46506;BME280;32220;49.808;9.968;2023-04-19T01:33:57;99567.53;;;10.87;72.91
46506;BME280;32220;49.808;9.968;2023-04-19T01:36:25;99575.28;;;10.90;72.72
46506;BME280;32220;49.808;9.968;2023-04-19T01:38:54;99566.81;;;10.84;73.64
46506;BME280;32220;49.808;9.968;2023-04-19T01:41:23;99566.19;;;10.78;73.76
46506;BME280;32220;49.808;9.968;2023-04-19T01:43:52;99555.38;;;10.66;73.67
46506;BME280;32220;49.808;9.968;2023-04-19T01:46:19;99553.72;;;10.63;73.97
46506;BME280;32220;49.808;9.968;2023-04-19T01:48:47;99543.53;;;10.56;74.14
46506;BME280;32220;49.808;9.968;2023-04-19T01:51:15;99564.44;;;10.62;73.88
46506;BME280;32220;49.808;9.968;2023-04-19T01:53:43;99559.28;;;10.59;73.88
46506;BME280;32220;49.808;9.968;2023-04-19T01:56:11;99514.81;;;10.31;74.01
46506;BME280;32220;49.808;9.968;2023-04-19T01:58:40;99551.81;;;10.50;74.89
46506;BME280;32220;49.808;9.968;2023-04-19T02:01:08;99529.91;;;10.29;74.44
46506;BME280;32220;49.808;9.968;2023-04-19T02:03:37;99550.81;;;10.35;74.28
46506;BME280;32220;49.808;9.968;2023-04-19T02:06:09;99525.19;;;10.17;74.25
46506;BME280;32220;49.808;9.968;2023-04-19T02:08:38;99530.81;;;10.11;75.02
46506;BME280;32220;49.808;9.968;2023-04-19T02:11:06;99549.19;;;10.14;75.30
46506;BME280;32220;49.808;9.968;2023-04-19T02:13:34;99520.28;;;9.92;75.81
46506;BME280;32220;49.808;9.968;2023-04-19T02:16:04;99543.00;;;9.96;75.77
46506;BME280;32220;49.808;9.968;2023-04-19T02:18:33;99549.56;;;9.89;75.45
46506;BME280;32220;49.808;9.968;2023-04-19T02:21:04;99533.09;;;9.82;76.36
46506;BME280;32220;49.808;9.968;2023-04-19T02:23:31;99523.91;;;9.72;75.83
46506;BME280;32220;49.808;9.968;2023-04-19T02:25:59;99538.47;;;9.81;75.62
46506;BME280;32220;49.808;9.968;2023-04-19T02:28:28;99535.59;;;9.85;75.75
46506;BME280;32220;49.808;9.968;2023-04-19T02:30:56;99518.22;;;9.80;75.71
46506;BME280;32220;49.808;9.968;2023-04-19T02:33:26;99529.78;;;9.96;75.50
46506;BME280;32220;49.808;9.968;2023-04-19T02:35:54;99526.13;;;9.98;75.42
46506;BME280;32220;49.808;9.968;2023-04-19T02:38:22;99505.81;;;9.99;77.51
46506;BME280;32220;49.808;9.968;2023-04-19T02:40:53;99502.06;;;10.03;76.30
46506;BME280;32220;49.808;9.968;2023-04-19T02:43:20;99523.31;;;10.20;75.84
46506;BME280;32220;49.808;9.968;2023-04-19T02:45:49;99525.47;;;10.29;76.45
46506;BME280;32220;49.808;9.968;2023-04-19T02:48:17;99525.31;;;10.32;76.21
46506;BME280;32220;49.808;9.968;2023-04-19T02:50:46;99511.31;;;10.30;76.29
46506;BME280;32220;49.808;9.968;2023-04-19T02:53:14;99521.41;;;10.39;75.81
46506;BME280;32220;49.808;9.968;2023-04-19T02:55:42;99517.69;;;10.43;75.61
46506;BME280;32220;49.808;9.968;2023-04-19T02:58:15;99520.13;;;10.48;75.58
46506;BME280;32220;49.808;9.968;2023-04-19T03:00:54;99516.34;;;10.52;75.48
46506;BME280;32220;49.808;9.968;2023-04-19T03:03:22;99499.78;;;10.49;75.69
46506;BME280;32220;49.808;9.968;2023-04-19T03:05:52;99502.88;;;10.57;76.03
46506;BME280;32220;49.808;9.968;2023-04-19T03:08:20;99504.59;;;10.58;75.46
46506;BME280;32220;49.808;9.968;2023-04-19T03:10:49;99497.59;;;10.57;75.45
46506;BME280;32220;49.808;9.968;2023-04-19T03:13:17;99498.88;;;10.65;75.09
46506;BME280;32220;49.808;9.968;2023-04-19T03:15:44;99503.19;;;10.68;74.81
46506;BME280;32220;49.808;9.968;2023-04-19T03:18:13;99487.19;;;10.69;74.79
46506;BME280;32220;49.808;9.968;2023-04-19T03:20:42;99499.16;;;10.76;74.92
46506;BME280;32220;49.808;9.968;2023-04-19T03:23:12;99493.88;;;10.76;75.47
46506;BME280;32220;49.808;9.968;2023-04-19T03:25:40;99484.13;;;10.77;75.88
46506;BME280;32220;49.808;9.968;2023-04-19T03:28:25;99472.88;;;10.73;76.42
46506;BME280;32220;49.808;9.968;2023-04-19T03:31:11;99479.53;;;10.80;76.31
46506;BME280;32220;49.808;9.968;2023-04-19T03:33:39;99476.03;;;10.80;76.92
46506;BME280;32220;49.808;9.968;2023-04-19T03:36:08;99468.16;;;10.78;77.69
46506;BME280;32220;49.808;9.968;2023-04-19T03:38:39;99470.66;;;10.82;77.61
46506;BME280;32220;49.808;9.968;2023-04-19T03:41:18;99453.28;;;10.76;77.52
46506;BME280;32220;49.808;9.968;2023-04-19T03:43:47;99471.16;;;10.88;77.40
46506;BME280;32220;49.808;9.968;2023-04-19T03:46:15;99426.19;;;10.71;77.81
46506;BME280;32220;49.808;9.968;2023-04-19T03:48:43;99455.25;;;10.88;78.23
46506;BME280;32220;49.808;9.968;2023-04-19T03:51:11;99460.41;;;10.91;78.47
46506;BME280;32220;49.808;9.968;2023-04-19T03:53:42;99460.25;;;10.94;78.05
46506;BME280;32220;49.808;9.968;2023-04-19T03:56:10;99451.38;;;10.95;79.10
46506;BME280;32220;49.808;9.968;2023-04-19T03:58:38;99437.69;;;10.87;78.26
46506;BME280;32220;49.808;9.968;2023-04-19T04:01:07;99434.91;;;10.89;78.46
46506;BME280;32220;49.808;9.968;2023-04-19T04:03:35;99435.47;;;10.95;78.75
46506;BME280;32220;49.808;9.968;2023-04-19T04:06:04;99451.88;;;11.02;78.73
46506;BME280;32220;49.808;9.968;2023-04-19T04:08:31;99448.97;;;11.06;78.61
46506;BME280;32220;49.808;9.968;2023-04-19T04:11:00;99443.69;;;11.06;79.74
46506;BME280;32220;49.808;9.968;2023-04-19T04:13:29;99442.13;;;11.02;79.89
46506;BME280;32220;49.808;9.968;2023-04-19T04:16:06;99451.88;;;11.02;80.15
46506;BME280;32220;49.808;9.968;2023-04-19T04:18:34;99447.44;;;11.02;79.78
46506;BME280;32220;49.808;9.968;2023-04-19T04:21:05;99445.56;;;11.04;80.23
46506;BME280;32220;49.808;9.968;2023-04-19T04:23:36;99450.69;;;11.07;79.52
46506;BME280;32220;49.808;9.968;2023-04-19T04:26:09;99447.09;;;11.08;80.04
46506;BME280;32220;49.808;9.968;2023-04-19T04:29:02;99449.59;;;11.11;79.40
46506;BME280;32220;49.808;9.968;2023-04-19T04:31:31;99459.16;;;11.14;79.01
46506;BME280;32220;49.808;9.968;2023-04-19T04:34:01;99463.34;;;11.18;79.16
46506;BME280;32220;49.808;9.968;2023-04-19T04:36:31;99455.31;;;11.20;78.75
46506;BME280;32220;49.808;9.968;2023-04-19T04:39:00;99449.84;;;11.23;79.23
46506;BME280;32220;49.808;9.968;2023-04-19T04:41:30;99449.84;;;11.23;78.78
46506;BME280;32220;49.808;9.968;2023-04-19T04:43:58;99454.97;;;11.26;78.73
46506;BME280;32220;49.808;9.968;2023-04-19T04:46:27;99441.63;;;11.27;78.65
46506;BME280;32220;49.808;9.968;2023-04-19T04:48:55;99457.28;;;11.32;78.91
46506;BME280;32220;49.808;9.968;2023-04-19T04:51:22;99464.31;;;11.33;78.31
46506;BME280;32220;49.808;9.968;2023-04-19T04:53:52;99450.88;;;11.36;78.35
46506;BME280;32220;49.808;9.968;2023-04-19T04:56:20;99448.31;;;11.34;78.67
46506;BME280;32220;49.808;9.968;2023-04-19T04:58:49;99450.25;;;11.31;78.56
46506;BME280;32220;49.808;9.968;2023-04-19T05:01:26;99436.50;;;11.24;78.78
46506;BME280;32220;49.808;9.968;2023-04-19T05:03:54;99444.94;;;11.15;78.87
46506;BME280;32220;49.808;9.968;2023-04-19T05:06:22;99426.91;;;11.06;78.97
46506;BME280;32220;49.808;9.968;2023-04-19T05:08:50;99441.13;;;11.21;78.73
46506;BME280;32220;49.808;9.968;2023-04-19T05:11:29;99437.84;;;11.15;78.53
46506;BME280;32220;49.808;9.968;2023-04-19T05:13:58;99417.00;;;11.09;78.79
46506;BME280;32220;49.808;9.968;2023-04-19T05:16:26;99440.03;;;11.25;78.80
46506;BME280;32220;49.808;9.968;2023-04-19T05:18:54;99443.41;;;11.27;78.95
46506;BME280;32220;49.808;9.968;2023-04-19T05:21:24;99393.16;;;11.09;78.62
46506;BME280;32220;49.808;9.968;2023-04-19T05:23:52;99445.28;;;11.40;78.26
46506;BME280;32220;49.808;9.968;2023-04-19T05:26:20;99443.16;;;11.47;78.54
46506;BME280;32220;49.808;9.968;2023-04-19T05:28:49;99442.63;;;11.56;78.36
46506;BME280;32220;49.808;9.968;2023-04-19T05:31:28;99439.03;;;11.57;77.81
46506;BME280;32220;49.808;9.968;2023-04-19T05:34:09;99443.97;;;11.63;78.06
46506;BME280;32220;49.808;9.968;2023-04-19T05:36:36;99441.75;;;11.71;77.61
46506;BME280;32220;49.808;9.968;2023-04-19T05:39:04;99438.00;;;11.75;77.60
46506;BME280;32220;49.808;9.968;2023-04-19T05:41:32;99442.88;;;11.83;77.14
46506;BME280;32220;49.808;9.968;2023-04-19T05:43:59;99416.78;;;11.75;76.74
46506;BME280;32220;49.808;9.968;2023-04-19T05:46:29;99440.53;;;11.93;76.32
46506;BME280;32220;49.808;9.968;2023-04-19T05:48:57;99435.06;;;11.96;76.40
46506;BME280;32220;49.808;9.968;2023-04-19T05:51:40;99437.72;;;11.96;76.00
46506;BME280;32220;49.808;9.968;2023-04-19T05:54:22;99441.88;;;12.00;76.03
46506;BME280;32220;49.808;9.968;2023-04-19T05:56:50;99432.41;;;11.96;75.43
46506;BME280;32220;49.808;9.968;2023-04-19T05:59:18;99439.72;;;12.06;75.80
46506;BME280;32220;49.808;9.968;2023-04-19T06:01:47;99444.56;;;12.14;75.46
46506;BME280;32220;49.808;9.968;2023-04-19T06:04:15;99442.50;;;12.19;75.09
46506;BME280;32220;49.808;9.968;2023-04-19T06:06:42;99443.63;;;12.15;74.76
46506;BME280;32220;49.808;9.968;2023-04-19T06:09:13;99444.13;;;12.21;74.71
46506;BME280;32220;49.808;9.968;2023-04-19T06:11:43;99443.94;;;12.24;74.17
46506;BME280;32220;49.808;9.968;2023-04-19T06:14:11;99441.78;;;12.31;73.86
46506;BME280;32220;49.808;9.968;2023-04-19T06:16:39;99428.00;;;12.24;73.88
46506;BME280;32220;49.808;9.968;2023-04-19T06:19:08;99447.19;;;12.44;73.74
46506;BME280;32220;49.808;9.968;2023-04-19T06:21:36;99458.50;;;12.47;73.05
46506;BME280;32220;49.808;9.968;2023-04-19T06:24:05;99458.50;;;12.47;73.31
46506;BME280;32220;49.808;9.968;2023-04-19T06:26:33;99451.16;;;12.37;72.98
46506;BME280;32220;49.808;9.968;2023-04-19T06:29:01;99445.97;;;12.35;72.59
46506;BME280;32220;49.808;9.968;2023-04-19T06:31:28;99462.84;;;12.34;71.68
46506;BME280;32220;49.808;9.968;2023-04-19T06:33:56;99460.38;;;12.31;71.42
46506;BME280;32220;49.808;9.968;2023-04-19T06:36:25;99454.50;;;12.40;70.96
46506;BME280;32220;49.808;9.968;2023-04-19T06:38:53;99459.78;;;12.26;68.63
46506;BME280;32220;49.808;9.968;2023-04-19T06:41:21;99467.47;;;12.31;67.95
46506;BME280;32220;49.808;9.968;2023-04-19T06:44:06;99466.78;;;12.27;67.92
46506;BME280;32220;49.808;9.968;2023-04-19T06:46:34;99472.09;;;12.27;68.62
46506;BME280;32220;49.808;9.968;2023-04-19T06:49:01;99465.09;;;12.26;68.22
46506;BME280;32220;49.808;9.968;2023-04-19T06:51:31;99453.16;;;12.33;68.28
46506;BME280;32220;49.808;9.968;2023-04-19T06:53:59;99440.06;;;12.30;68.31
46506;BME280;32220;49.808;9.968;2023-04-19T06:56:41;99458.69;;;12.44;68.00
46506;BME280;32220;49.808;9.968;2023-04-19T06:59:11;99465.69;;;12.31;66.64
46506;BME280;32220;49.808;9.968;2023-04-19T07:01:39;99459.03;;;12.38;66.51
46506;BME280;32220;49.808;9.968;2023-04-19T07:04:07;99454.50;;;12.40;66.16
46506;BME280;32220;49.808;9.968;2023-04-19T07:06:37;99454.97;;;12.33;65.57
46506;BME280;32220;49.808;9.968;2023-04-19T07:09:06;99454.03;;;12.48;65.00
46506;BME280;32220;49.808;9.968;2023-04-19T07:11:34;99463.63;;;12.65;64.49
46506;BME280;32220;49.808;9.968;2023-04-19T07:14:02;99451.59;;;12.73;63.37
46506;BME280;32220;49.808;9.968;2023-04-19T07:16:29;99457.38;;;12.94;63.34
46506;BME280;32220;49.808;9.968;2023-04-19T07:18:57;99450.72;;;13.15;62.74
46506;BME280;32220;49.808;9.968;2023-04-19T07:21:25;99459.00;;;13.52;62.24
46506;BME280;32220;49.808;9.968;2023-04-19T07:23:59;99469.75;;;13.77;60.20
46506;BME280;32220;49.808;9.968;2023-04-19T07:26:26;99470.25;;;13.96;59.93
46506;BME280;32220;49.808;9.968;2023-04-19T07:28:54;99471.13;;;14.10;58.16
46506;BME280;32220;49.808;9.968;2023-04-19T07:31:22;99454.88;;;14.27;58.33
46506;BME280;32220;49.808;9.968;2023-04-19T07:33:51;99463.13;;;14.49;57.42
46506;BME280;32220;49.808;9.968;2023-04-19T07:36:18;99468.25;;;14.52;56.76
46506;BME280;32220;49.808;9.968;2023-04-19T07:38:47;99477.19;;;14.51;56.07
46506;BME280;32220;49.808;9.968;2023-04-19T07:41:16;99464.28;;;14.32;55.87
46506;BME280;32220;49.808;9.968;2023-04-19T07:43:44;99481.41;;;14.28;56.02
46506;BME280;32220;49.808;9.968;2023-04-19T07:46:13;99478.44;;;14.33;55.43
46506;BME280;32220;49.808;9.968;2023-04-19T07:48:42;99477.78;;;14.29;54.84
46506;BME280;32220;49.808;9.968;2023-04-19T07:51:10;99472.06;;;14.48;55.00
46506;BME280;32220;49.808;9.968;2023-04-19T07:53:39;99482.31;;;14.54;54.34
46506;BME280;32220;49.808;9.968;2023-04-19T07:56:09;99477.75;;;14.82;54.20
46506;BME280;32220;49.808;9.968;2023-04-19T07:58:38;99477.97;;;14.91;53.41
46506;BME280;32220;49.808;9.968;2023-04-19T08:01:06;99490.41;;;15.16;52.83
46506;BME280;32220;49.808;9.968;2023-04-19T08:03:34;99474.78;;;15.35;53.19
46506;BME280;32220;49.808;9.968;2023-04-19T08:06:03;99500.00;;;15.80;52.00
46506;BME280;32220;49.808;9.968;2023-04-19T08:08:37;99506.78;;;15.85;51.03
46506;BME280;32220;49.808;9.968;2023-04-19T08:11:05;99494.81;;;15.66;51.83
46506;BME280;32220;49.808;9.968;2023-04-19T08:13:33;99495.31;;;15.95;51.79
46506;BME280;32220;49.808;9.968;2023-04-19T08:16:03;99492.59;;;16.43;51.01
46506;BME280;32220;49.808;9.968;2023-04-19T08:18:31;99490.88;;;16.66;50.29
46506;BME280;32220;49.808;9.968;2023-04-19T08:20:59;99488.06;;;16.67;49.46
46506;BME280;32220;49.808;9.968;2023-04-19T08:23:27;99495.94;;;16.34;49.28
46506;BME280;32220;49.808;9.968;2023-04-19T08:25:56;99493.25;;;16.23;49.83
46506;BME280;32220;49.808;9.968;2023-04-19T08:28:24;99495.88;;;16.11;50.60
46506;BME280;32220;49.808;9.968;2023-04-19T08:30:53;99476.50;;;15.97;51.47
46506;BME280;32220;49.808;9.968;2023-04-19T08:33:25;99471.22;;;15.84;51.11
46506;BME280;32220;49.808;9.968;2023-04-19T08:35:52;99479.63;;;15.67;51.62
46506;BME280;32220;49.808;9.968;2023-04-19T08:38:26;99463.31;;;15.59;51.87
46506;BME280;32220;49.808;9.968;2023-04-19T08:40:53;99465.13;;;15.45;52.42
46506;BME280;32220;49.808;9.968;2023-04-19T08:43:24;99486.72;;;15.42;52.51
46506;BME280;32220;49.808;9.968;2023-04-19T08:45:55;99468.72;;;15.21;53.28
46506;BME280;32220;49.808;9.968;2023-04-19T08:48:26;99473.53;;;15.28;52.99
46506;BME280;32220;49.808;9.968;2023-04-19T08:50:55;99472.25;;;15.21;52.87
46506;BME280;32220;49.808;9.968;2023-04-19T08:53:27;99472.91;;;15.12;52.58
46506;BME280;32220;49.808;9.968;2023-04-19T08:55:55;99449.84;;;15.11;53.02
46506;BME280;32220;49.808;9.968;2023-04-19T08:58:25;99461.41;;;15.48;52.12
46506;BME280;32220;49.808;9.968;2023-04-19T09:00:56;99466.22;;;15.79;51.48
46506;BME280;32220;49.808;9.968;2023-04-19T09:03:26;99462.81;;;16.01;51.73
46506;BME280;32220;49.808;9.968;2023-04-19T09:05:54;99472.25;;;15.94;50.29
46506;BME280;32220;49.808;9.968;2023-04-19T09:08:23;99475.59;;;15.85;50.46
46506;BME280;32220;49.808;9.968;2023-04-19T09:10:53;99480.25;;;15.70;50.58
46506;BME280;32220;49.808;9.968;2023-04-19T09:13:21;99459.19;;;15.55;50.97
46506;BME280;32220;49.808;9.968;2023-04-19T09:15:49;99476.28;;;15.76;50.00
46506;BME280;32220;49.808;9.968;2023-04-19T09:18:19;99462.94;;;15.76;48.92
46506;BME280;32220;49.808;9.968;2023-04-19T09:20:48;99473.13;;;15.95;48.95
46506;BME280;32220;49.808;9.968;2023-04-19T09:23:17;99442.13;;;15.92;49.35
46506;BME280;32220;49.808;9.968;2023-04-19T09:25:53;99465.69;;;16.33;49.65
46506;BME280;32220;49.808;9.968;2023-04-19T09:28:21;99462.47;;;16.52;49.29
46506;BME280;32220;49.808;9.968;2023-04-19T09:30:49;99470.78;;;16.71;48.15
46506;BME280;32220;49.808;9.968;2023-04-19T09:33:33;99473.00;;;16.66;47.12
46506;BME280;32220;49.808;9.968;2023-04-19T09:36:03;99470.56;;;17.08;46.80
46506;BME280;32220;49.808;9.968;2023-04-19T09:38:45;99432.09;;;17.65;46.09
46506;BME280;32220;49.808;9.968;2023-04-19T09:41:13;99477.69;;;19.00;43.32
46506;BME280;32220;49.808;9.968;2023-04-19T09:43:40;99499.09;;;20.11;42.19
46506;BME280;32220;49.808;9.968;2023-04-19T09:46:08;99502.97;;;20.37;40.65
46506;BME280;32220;49.808;9.968;2023-04-19T09:48:36;99499.38;;;20.56;40.34
46506;BME280;32220;49.808;9.968;2023-04-19T09:51:05;99498.13;;;20.60;39.34
46506;BME280;32220;49.808;9.968;2023-04-19T09:53:33;99511.69;;;20.30;39.25
46506;BME280;32220;49.808;9.968;2023-04-19T09:56:01;99511.34;;;19.75;39.63
46506;BME280;32220;49.808;9.968;2023-04-19T09:58:31;99496.19;;;19.34;40.82
46506;BME280;32220;49.808;9.968;2023-04-19T10:00:59;99482.41;;;19.18;41.55
46506;BME280;32220;49.808;9.968;2023-04-19T10:03:28;99495.13;;;18.85;40.23
46506;BME280;32220;49.808;9.968;2023-04-19T10:05:56;99474.50;;;18.86;41.53
46506;BME280;32220;49.808;9.968;2023-04-19T10:08:26;99489.84;;;19.05;40.57
46506;BME280;32220;49.808;9.968;2023-04-19T10:10:54;99464.38;;;18.89;40.97
46506;BME280;32220;49.808;9.968;2023-04-19T10:13:23;99468.66;;;19.01;40.56
46506;BME280;32220;49.808;9.968;2023-04-19T10:15:51;99488.16;;;19.04;40.60
46506;BME280;32220;49.808;9.968;2023-04-19T10:18:19;99479.06;;;18.95;40.34
46506;BME280;32220;49.808;9.968;2023-04-19T10:20:52;99496.06;;;19.35;40.03
46506;BME280;32220;49.808;9.968;2023-04-19T10:23:21;99491.22;;;19.29;38.99
46506;BME280;32220;49.808;9.968;2023-04-19T10:25:54;99485.09;;;19.18;39.62
46506;BME280;32220;49.808;9.968;2023-04-19T10:28:22;99485.56;;;19.23;40.30
46506;BME280;32220;49.808;9.968;2023-04-19T10:30:57;99463.63;;;19.18;39.84
46506;BME280;32220;49.808;9.968;2023-04-19T10:33:27;99474.75;;;19.44;39.12
46506;BME280;32220;49.808;9.968;2023-04-19T10:35:57;99466.28;;;20.36;38.44
46506;BME280;32220;49.808;9.968;2023-04-19T10:38:36;99466.69;;;21.90;37.22
46506;BME280;32220;49.808;9.968;2023-04-19T10:41:06;99485.84;;;22.14;35.82
46506;BME280;32220;49.808;9.968;2023-04-19T10:43:40;99495.78;;;21.41;35.52
46506;BME280;32220;49.808;9.968;2023-04-19T10:46:09;99502.41;;;22.54;33.91
46506;BME280;32220;49.808;9.968;2023-04-19T10:48:49;99500.81;;;24.72;32.80
46506;BME280;32220;49.808;9.968;2023-04-19T10:51:20;99512.38;;;26.16;30.04
46506;BME280;32220;49.808;9.968;2023-04-19T10:53:53;99519.00;;;26.13;27.43
46506;BME280;32220;49.808;9.968;2023-04-19T10:56:56;99509.78;;;24.97;28.60
46506;BME280;32220;49.808;9.968;2023-04-19T10:59:25;99488.66;;;23.85;30.57
46506;BME280;32220;49.808;9.968;2023-04-19T11:01:55;99489.06;;;24.88;29.29
46506;BME280;32220;49.808;9.968;2023-04-19T11:04:57;99488.44;;;25.88;28.79
46506;BME280;32220;49.808;9.968;2023-04-19T11:07:26;99488.44;;;27.02;27.98
46506;BME280;32220;49.808;9.968;2023-04-19T11:09:54;99491.44;;;27.81;26.61
46506;BME280;32220;49.808;9.968;2023-04-19T11:12:23;99508.34;;;28.12;24.97
46506;BME280;32220;49.808;9.968;2023-04-19T11:14:52;99493.16;;;29.10;25.17
46506;BME280;32220;49.808;9.968;2023-04-19T11:17:23;99483.59;;;29.55;25.69
46506;BME280;32220;49.808;9.968;2023-04-19T11:19:53;99494.09;;;29.99;23.97
46506;BME280;32220;49.808;9.968;2023-04-19T11:22:24;99477.19;;;30.56;23.93
46506;BME280;32220;49.808;9.968;2023-04-19T11:24:53;99459.09;;;31.01;22.93
46506;BME280;32220;49.808;9.968;2023-04-19T11:27:20;99509.44;;;30.00;21.92
46506;BME280;32220;49.808;9.968;2023-04-19T11:29:50;99474.59;;;28.49;23.41
46506;BME280;32220;49.808;9.968;2023-04-19T11:32:20;99457.66;;;28.54;25.07
46506;BME280;32220;49.808;9.968;2023-04-19T11:34:47;99423.63;;;28.71;21.83
46506;BME280;32220;49.808;9.968;2023-04-19T11:37:15;99472.50;;;30.30;22.41
46506;BME280;32220;49.808;9.968;2023-04-19T11:39:46;99471.75;;;30.76;20.53
46506;BME280;32220;49.808;9.968;2023-04-19T11:42:18;99471.31;;;30.86;19.29
46506;BME280;32220;49.808;9.968;2023-04-19T11:44:51;99454.47;;;30.95;20.32
46506;BME280;32220;49.808;9.968;2023-04-19T11:47:19;99463.75;;;31.78;20.35
46506;BME280;32220;49.808;9.968;2023-04-19T11:49:46;99473.59;;;32.31;19.39
46506;BME280;32220;49.808;9.968;2023-04-19T11:52:20;99443.19;;;32.64;19.18
46506;BME280;32220;49.808;9.968;2023-04-19T11:54:49;99465.25;;;33.43;17.75
46506;BME280;32220;49.808;9.968;2023-04-19T11:57:26;99456.47;;;33.71;17.49
46506;BME280;32220;49.808;9.968;2023-04-19T12:00:06;99445.06;;;34.16;17.85
46506;BME280;32220;49.808;9.968;2023-04-19T12:02:42;99445.97;;;34.81;17.08
46506;BME280;32220;49.808;9.968;2023-04-19T12:05:11;99462.84;;;35.43;14.86
46506;BME280;32220;49.808;9.968;2023-04-19T12:08:02;99445.47;;;35.43;15.61
46506;BME280;32220;49.808;9.968;2023-04-19T12:10:31;99437.91;;;35.50;15.64
46506;BME280;32220;49.808;9.968;2023-04-19T12:13:00;99435.75;;;35.52;15.36
46506;BME280;32220;49.808;9.968;2023-04-19T12:15:42;99443.16;;;36.31;15.16
46506;BME280;32220;49.808;9.968;2023-04-19T12:18:11;99450.91;;;36.80;15.43
46506;BME280;32220;49.808;9.968;2023-04-19T12:20:43;99448.81;;;36.70;14.61
46506;BME280;32220;49.808;9.968;2023-04-19T12:23:11;99450.25;;;37.11;14.70
46506;BME280;32220;49.808;9.968;2023-04-19T12:25:42;99434.00;;;37.70;14.37
46506;BME280;32220;49.808;9.968;2023-04-19T12:28:09;99426.88;;;38.28;14.28
46506;BME280;32220;49.808;9.968;2023-04-19T12:30:37;99405.31;;;38.62;14.89
46506;BME280;32220;49.808;9.968;2023-04-19T12:33:07;99420.03;;;37.82;13.69
46506;BME280;32220;49.808;9.968;2023-04-19T12:35:35;99423.34;;;35.14;14.50
46506;BME280;32220;49.808;9.968;2023-04-19T12:38:04;99412.31;;;34.68;14.35
46506;BME280;32220;49.808;9.968;2023-04-19T12:40:32;99399.59;;;35.37;15.77
46506;BME280;32220;49.808;9.968;2023-04-19T12:43:00;99395.25;;;36.54;15.17
46506;BME280;32220;49.808;9.968;2023-04-19T12:45:28;99385.09;;;37.75;14.94
46506;BME280;32220;49.808;9.968;2023-04-19T12:47:55;99392.94;;;38.69;14.37
46506;BME280;32220;49.808;9.968;2023-04-19T12:50:24;99404.56;;;38.71;13.61
46506;BME280;32220;49.808;9.968;2023-04-19T12:52:52;99405.34;;;38.35;12.41
46506;BME280;32220;49.808;9.968;2023-04-19T12:55:20;99419.63;;;37.73;11.40
46506;BME280;32220;49.808;9.968;2023-04-19T12:57:47;99414.22;;;37.39;11.46
46506;BME280;32220;49.808;9.968;2023-04-19T13:00:15;99417.47;;;36.98;12.09
46506;BME280;32220;49.808;9.968;2023-04-19T13:02:44;99406.44;;;36.98;12.03
46506;BME280;32220;49.808;9.968;2023-04-19T13:05:13;99412.44;;;37.28;13.01
46506;BME280;32220;49.808;9.968;2023-04-19T13:07:42;99408.44;;;37.19;11.77
46506;BME280;32220;49.808;9.968;2023-04-19T13:10:10;99392.97;;;36.85;11.87
46506;BME280;32220;49.808;9.968;2023-04-19T13:12:38;99425.00;;;37.02;11.68
46506;BME280;32220;49.808;9.968;2023-04-19T13:15:08;99402.59;;;36.65;11.99